createdAt,value
2023-05-18T00:00:56.002Z,8.00
2023-05-18T00:06:07.786Z,8.10
2023-05-18T00:11:15.064Z,8.00
2023-05-18T00:16:22.324Z,8.10
2023-05-18T00:21:30.969Z,8.00
2023-05-18T00:26:39.481Z,8.00
2023-05-18T00:31:46.742Z,8.00
2023-05-18T00:36:53.759Z,8.00
2023-05-18T00:42:00.782Z,8.00
2023-05-18T00:47:08.288Z,7.90
2023-05-18T00:52:15.366Z,8.00
2023-05-18T00:57:22.416Z,8.00
2023-05-18T01:02:30.768Z,7.90
2023-05-18T01:07:39.917Z,8.00
2023-05-18T01:12:56.781Z,8.00
2023-05-18T01:18:29.626Z,8.00
2023-05-18T01:23:53.113Z,8.00
2023-05-18T01:29:04.279Z,8.00
2023-05-18T01:34:11.315Z,8.00
2023-05-18T01:39:18.437Z,8.10
2023-05-18T01:44:33.536Z,8.00
2023-05-18T01:50:06.077Z,8.00
2023-05-18T01:55:13.882Z,8.00
2023-05-18T02:00:22.637Z,8.00
2023-05-18T02:05:29.876Z,8.00
2023-05-18T02:10:37.129Z,8.00
2023-05-18T02:15:45.300Z,8.00
2023-05-18T02:20:52.821Z,8.00
2023-05-18T02:26:00.137Z,8.00
2023-05-18T02:31:13.486Z,8.00
2023-05-18T02:36:22.074Z,8.00
2023-05-18T02:41:29.391Z,8.10
2023-05-18T02:46:36.419Z,8.00
2023-05-18T02:51:43.806Z,7.90
2023-05-18T02:56:50.840Z,7.90
2023-05-18T03:01:58.076Z,7.80
2023-05-18T03:07:04.970Z,7.70
2023-05-18T03:12:12.064Z,7.70
2023-05-18T03:17:19.176Z,7.60
2023-05-18T03:22:25.920Z,7.70
2023-05-18T03:27:32.765Z,7.70
2023-05-18T03:32:39.538Z,7.60
2023-05-18T03:37:46.496Z,7.60
2023-05-18T03:42:53.238Z,7.70
2023-05-18T03:48:00.048Z,7.50
2023-05-18T03:53:10.031Z,7.40
2023-05-18T03:58:17.463Z,7.50
2023-05-18T04:03:25.890Z,7.50
2023-05-18T04:08:34.363Z,7.60
2023-05-18T04:13:42.379Z,7.60
2023-05-18T04:18:49.592Z,7.50
2023-05-18T04:23:59.811Z,7.50
2023-05-18T04:29:07.964Z,7.60
2023-05-18T04:34:16.440Z,7.60
2023-05-18T04:39:25.415Z,7.70
2023-05-18T04:44:36.904Z,7.80
2023-05-18T04:49:44.009Z,8.00
2023-05-18T04:54:51.333Z,8.10
2023-05-18T04:59:58.701Z,8.20
2023-05-18T05:05:07.159Z,8.20
2023-05-18T05:10:14.033Z,8.30
2023-05-18T05:15:21.542Z,8.20
2023-05-18T05:20:28.368Z,8.20
2023-05-18T05:25:35.529Z,8.20
2023-05-18T05:30:42.556Z,8.20
2023-05-18T05:35:49.650Z,8.30
2023-05-18T05:40:56.645Z,8.50
2023-05-18T05:46:03.632Z,8.60
2023-05-18T05:51:10.363Z,8.70
2023-05-18T05:56:17.464Z,8.50
2023-05-18T06:01:24.321Z,8.50
2023-05-18T06:06:31.877Z,8.50
2023-05-18T06:11:38.786Z,8.40
2023-05-18T06:16:45.876Z,8.50
2023-05-18T06:21:52.899Z,8.70
2023-05-18T06:27:00.114Z,8.90
2023-05-18T06:32:07.843Z,9.10
2023-05-18T06:37:14.796Z,9.40
2023-05-18T06:42:21.611Z,9.70
2023-05-18T06:47:28.568Z,10.00
2023-05-18T06:52:38.400Z,10.40
2023-05-18T06:57:45.160Z,10.70
2023-05-18T07:02:52.271Z,10.80
2023-05-18T07:08:00.046Z,10.90
2023-05-18T07:13:06.921Z,11.10
2023-05-18T07:18:14.088Z,11.30
2023-05-18T07:23:33.971Z,11.60
2023-05-18T07:28:42.707Z,11.80
2023-05-18T07:33:50.341Z,12.10
2023-05-18T07:38:57.714Z,12.20
2023-05-18T07:44:05.092Z,12.40
2023-05-18T07:49:11.953Z,13.00
2023-05-18T07:54:19.568Z,12.80
2023-05-18T07:59:27.052Z,12.80
2023-05-18T08:04:34.281Z,12.90
2023-05-18T08:09:42.146Z,13.50
2023-05-18T08:14:49.141Z,13.50
2023-05-18T08:19:57.440Z,13.50
2023-05-18T08:25:05.984Z,13.70
2023-05-18T08:30:14.161Z,13.70
2023-05-18T08:35:22.267Z,14.00
2023-05-18T08:40:33.581Z,14.80
2023-05-18T08:46:20.085Z,15.20
2023-05-18T08:51:30.565Z,15.10
2023-05-18T08:56:39.151Z,14.30
2023-05-18T09:01:46.302Z,13.80
2023-05-18T09:06:57.190Z,13.90
2023-05-18T09:12:05.477Z,13.90
2023-05-18T09:17:12.941Z,13.50
2023-05-18T09:22:20.179Z,13.30
2023-05-18T09:27:27.590Z,13.70
2023-05-18T09:32:39.987Z,14.30
2023-05-18T09:37:48.160Z,14.40
2023-05-18T09:42:56.413Z,15.10
2023-05-18T09:48:03.411Z,15.40
2023-05-18T09:53:12.392Z,14.80
2023-05-18T09:58:20.340Z,14.40
2023-05-18T10:03:27.968Z,14.80
2023-05-18T10:08:36.367Z,15.10
2023-05-18T10:13:47.431Z,15.90
2023-05-18T10:18:57.010Z,15.70
2023-05-18T10:24:06.396Z,15.70
2023-05-18T10:29:14.051Z,15.70
2023-05-18T10:34:23.321Z,15.40
2023-05-18T10:39:31.068Z,15.20
2023-05-18T10:44:39.782Z,15.30
2023-05-18T10:49:49.122Z,15.30
2023-05-18T10:54:57.311Z,15.40
2023-05-18T11:00:08.318Z,15.60
2023-05-18T11:05:15.400Z,15.80
2023-05-18T11:10:22.765Z,15.30
2023-05-18T11:15:59.907Z,15.80
2023-05-18T11:21:28.383Z,15.40
2023-05-18T11:26:41.585Z,15.90
2023-05-18T11:31:54.813Z,15.80
2023-05-18T11:37:01.893Z,15.70
2023-05-18T11:42:17.780Z,15.20
2023-05-18T11:47:29.693Z,14.90
2023-05-18T11:52:47.703Z,15.00
2023-05-18T11:57:55.311Z,15.30
2023-05-18T12:03:04.591Z,15.40
2023-05-18T12:08:13.719Z,15.70
2023-05-18T12:13:20.640Z,15.70
2023-05-18T12:18:30.466Z,15.30
2023-05-18T12:23:41.209Z,15.40
2023-05-18T12:28:49.050Z,15.30
2023-05-18T12:33:59.475Z,15.40
2023-05-18T12:39:07.527Z,15.20
2023-05-18T12:44:14.737Z,15.40
2023-05-18T12:49:22.329Z,15.50
2023-05-18T12:54:33.252Z,15.30
2023-05-18T12:59:44.747Z,15.20
2023-05-18T13:05:09.019Z,15.00
2023-05-18T13:10:20.820Z,14.90
2023-05-18T13:15:27.808Z,14.70
2023-05-18T13:20:39.039Z,14.80
2023-05-18T13:25:47.238Z,14.80
2023-05-18T13:30:54.420Z,14.80
2023-05-18T13:36:03.131Z,14.80
2023-05-18T13:41:12.929Z,14.90
2023-05-18T13:46:20.662Z,15.00
2023-05-18T13:51:27.742Z,15.00
2023-05-18T13:56:35.032Z,15.00
2023-05-18T14:01:42.809Z,14.70
2023-05-18T14:06:51.956Z,14.70
2023-05-18T14:12:00.443Z,14.60
2023-05-18T14:17:09.253Z,14.50
2023-05-18T14:22:16.788Z,14.30
2023-05-18T14:27:24.069Z,14.30
2023-05-18T14:32:31.734Z,14.30
2023-05-18T14:37:39.884Z,14.40
2023-05-18T14:42:46.698Z,14.50
2023-05-18T14:47:53.540Z,14.30
2023-05-18T14:53:00.771Z,14.50
2023-05-18T14:58:10.986Z,14.40
2023-05-18T15:03:18.043Z,14.30
2023-05-18T15:08:25.133Z,14.30
2023-05-18T15:13:33.147Z,14.40
2023-05-18T15:18:41.321Z,14.40
2023-05-18T15:23:49.185Z,14.30
2023-05-18T15:28:56.816Z,14.20
2023-05-18T15:34:03.615Z,14.10
2023-05-18T15:39:10.742Z,14.10
2023-05-18T15:44:17.881Z,14.00
2023-05-18T15:49:25.924Z,13.90
2023-05-18T15:54:33.065Z,13.90
2023-05-18T15:59:40.499Z,13.90
2023-05-18T16:04:47.664Z,13.80
2023-05-18T16:09:54.707Z,13.70
2023-05-18T16:15:01.868Z,13.50
2023-05-18T16:20:10.369Z,13.50
2023-05-18T16:25:19.023Z,13.40
2023-05-18T16:30:26.362Z,13.30
2023-05-18T16:35:33.338Z,13.10
2023-05-18T16:40:40.515Z,13.10
2023-05-18T16:45:47.883Z,13.00
2023-05-18T16:50:54.636Z,12.90
2023-05-18T16:56:03.319Z,12.90
2023-05-18T17:01:26.215Z,12.90
2023-05-18T17:06:20.457Z,12.80
2023-05-18T17:11:28.350Z,12.70
2023-05-18T17:16:36.714Z,12.60
2023-05-18T17:21:43.842Z,12.60
2023-05-18T17:26:51.274Z,12.50
2023-05-18T17:31:58.724Z,12.50
2023-05-18T17:37:05.883Z,12.50
2023-05-18T17:42:12.750Z,12.50
2023-05-18T17:47:22.180Z,12.30
2023-05-18T17:52:29.208Z,12.30
2023-05-18T17:57:36.103Z,12.30
2023-05-18T18:02:43.025Z,12.30
2023-05-18T18:07:50.092Z,12.20
2023-05-18T18:12:56.886Z,12.10
2023-05-18T18:18:03.927Z,12.00
2023-05-18T18:23:11.378Z,11.90
2023-05-18T18:28:19.015Z,11.90
2023-05-18T18:33:26.818Z,11.80
2023-05-18T18:38:34.273Z,11.80
2023-05-18T18:43:41.454Z,11.70
2023-05-18T18:48:48.759Z,11.60
2023-05-18T18:53:56.499Z,11.60
2023-05-18T18:59:03.445Z,11.60
2023-05-18T19:04:10.715Z,11.50
2023-05-18T19:09:18.357Z,11.50
2023-05-18T19:14:25.297Z,11.40
2023-05-18T19:19:32.949Z,11.20
2023-05-18T19:24:40.311Z,11.10
2023-05-18T19:29:47.200Z,11.20
2023-05-18T19:34:54.256Z,11.20
2023-05-18T19:40:01.378Z,11.30
2023-05-18T19:45:09.293Z,11.20
2023-05-18T19:50:16.339Z,11.10
2023-05-18T19:55:27.547Z,11.10
2023-05-18T20:00:36.170Z,11.00
2023-05-18T20:05:44.375Z,11.00
2023-05-18T20:10:52.851Z,10.90
2023-05-18T20:16:06.817Z,11.00
2023-05-18T20:21:13.999Z,11.00
2023-05-18T20:26:22.784Z,11.00
2023-05-18T20:31:31.201Z,10.70
2023-05-18T20:36:38.585Z,10.90
2023-05-18T20:41:45.580Z,10.80
2023-05-18T20:46:53.622Z,10.70
2023-05-18T20:52:00.506Z,10.90
2023-05-18T20:57:08.028Z,10.80
2023-05-18T21:02:14.960Z,10.80
2023-05-18T21:07:22.815Z,10.70
2023-05-18T21:12:30.022Z,10.80
2023-05-18T21:17:37.098Z,10.70
2023-05-18T21:22:44.324Z,10.70
2023-05-18T21:27:51.195Z,10.50
2023-05-18T21:32:58.238Z,10.60
2023-05-18T21:38:05.328Z,10.70
2023-05-18T21:43:13.133Z,10.60
2023-05-18T21:48:20.254Z,10.60
2023-05-18T21:53:27.795Z,10.60
2023-05-18T21:58:35.184Z,10.60
2023-05-18T22:03:42.080Z,10.60
2023-05-18T22:08:49.875Z,10.50
2023-05-18T22:13:56.959Z,10.40
2023-05-18T22:19:04.194Z,10.30
2023-05-18T22:24:11.422Z,10.40
2023-05-18T22:29:18.362Z,10.50
2023-05-18T22:34:26.000Z,10.50
2023-05-18T22:39:33.668Z,10.40
2023-05-18T22:44:40.779Z,10.40
2023-05-18T22:49:48.255Z,10.40
2023-05-18T22:54:55.646Z,10.30
2023-05-18T23:00:02.587Z,10.30
2023-05-18T23:05:11.218Z,10.30
2023-05-18T23:10:18.988Z,10.20
2023-05-18T23:15:26.187Z,10.30
2023-05-18T23:20:34.859Z,10.40
2023-05-18T23:25:41.933Z,10.40
2023-05-18T23:30:49.247Z,10.30
2023-05-18T23:35:58.995Z,10.10
2023-05-18T23:41:08.854Z,10.10
2023-05-18T23:46:17.568Z,10.10
2023-05-18T23:51:27.201Z,10.00
2023-05-18T23:56:34.923Z,10.10
